< < Back
Terminal Aerodrome Forecast


Current Version              Previous Versions:   1  2  3  4  5  6  7  8  9  

Terminal Aerodrome Forecast

033
FTUS42 KTAE 011500 AAA
TAFABY
TAF AMD
KABY 011503Z 0115/0212 04005KT P6SM BKN012
     FM011700 VRB05KT P6SM VCSH SCT030 BKN250
     FM020000 00000KT P6SM BKN250=

Latest METAR

766
SAUS70 KWBC 020400
MTRABY
METAR KABY 020353Z 05005KT 10SM CLR 24/21 A3003 RMK AO2 SLP166
T02390211


USA.gov is the U.S. government's official web portal to all federal, state and local government web resources and services.